createdAt,value
2023-05-15T00:00:28.973Z,12.78
2023-05-15T00:05:52.473Z,12.68
2023-05-15T00:11:01.598Z,12.61
2023-05-15T00:16:07.684Z,12.51
2023-05-15T00:21:10.336Z,12.43
2023-05-15T00:26:15.612Z,12.35
2023-05-15T00:31:18.260Z,12.29
2023-05-15T00:36:21.999Z,12.23
2023-05-15T00:41:28.518Z,12.20
2023-05-15T00:46:32.550Z,12.17
2023-05-15T00:51:35.546Z,12.18
2023-05-15T00:56:39.148Z,12.19
2023-05-15T01:01:41.740Z,12.23
2023-05-15T01:06:44.431Z,12.26
2023-05-15T01:11:50.019Z,12.29
2023-05-15T01:16:52.620Z,12.38
2023-05-15T01:22:17.174Z,12.50
2023-05-15T01:27:32.054Z,12.63
2023-05-15T01:32:43.929Z,12.74
2023-05-15T01:37:51.257Z,12.81
2023-05-15T01:43:03.688Z,12.87
2023-05-15T01:48:08.601Z,12.91
2023-05-15T01:53:12.527Z,12.92
2023-05-15T01:58:16.005Z,12.93
2023-05-15T02:03:19.882Z,12.94
2023-05-15T02:08:25.617Z,12.95
2023-05-15T02:13:28.728Z,12.97
2023-05-15T02:18:31.319Z,12.99
2023-05-15T02:23:34.849Z,13.00
2023-05-15T02:28:51.858Z,13.00
2023-05-15T02:34:03.320Z,12.99
2023-05-15T02:39:06.854Z,12.98
2023-05-15T02:44:11.408Z,12.98
2023-05-15T02:49:15.405Z,12.98
2023-05-15T02:54:18.599Z,12.99
2023-05-15T02:59:21.906Z,13.01
2023-05-15T03:04:24.660Z,13.02
2023-05-15T03:09:27.565Z,13.02
2023-05-15T03:14:30.138Z,13.04
2023-05-15T03:19:32.700Z,13.06
2023-05-15T03:24:35.318Z,13.06
2023-05-15T03:29:38.385Z,13.09
2023-05-15T03:34:41.514Z,13.11
2023-05-15T03:39:44.087Z,13.13
2023-05-15T03:44:46.630Z,13.16
2023-05-15T03:49:49.201Z,13.18
2023-05-15T03:54:51.984Z,13.20
2023-05-15T03:59:54.507Z,13.25
2023-05-15T04:04:57.417Z,13.31
2023-05-15T04:10:03.554Z,13.34
2023-05-15T04:15:23.794Z,13.41
2023-05-15T04:20:26.801Z,13.56
2023-05-15T04:25:29.378Z,13.65
2023-05-15T04:30:31.888Z,13.75
2023-05-15T04:35:34.578Z,13.89
2023-05-15T04:40:37.202Z,13.99
2023-05-15T04:45:39.767Z,14.04
2023-05-15T04:50:42.276Z,14.07
2023-05-15T04:55:44.917Z,14.15
2023-05-15T05:00:47.522Z,14.25
2023-05-15T05:05:50.108Z,14.34
2023-05-15T05:10:58.843Z,14.43
2023-05-15T05:16:01.577Z,14.56
2023-05-15T05:21:06.419Z,14.67
2023-05-15T05:26:09.010Z,14.76
2023-05-15T05:31:12.141Z,14.85
2023-05-15T05:36:15.640Z,14.95
2023-05-15T05:41:18.242Z,15.07
2023-05-15T05:46:21.151Z,15.22
2023-05-15T05:51:23.795Z,15.36
2023-05-15T05:56:26.550Z,15.55
2023-05-15T06:01:29.379Z,15.76
2023-05-15T06:06:31.952Z,15.97
2023-05-15T06:11:34.504Z,16.12
2023-05-15T06:16:37.134Z,16.22
2023-05-15T06:21:39.759Z,16.31
2023-05-15T06:26:42.589Z,16.42
2023-05-15T06:31:45.216Z,16.51
2023-05-15T06:36:48.004Z,16.52
2023-05-15T06:41:50.624Z,16.46
2023-05-15T06:46:53.463Z,16.40
2023-05-15T06:51:56.056Z,16.37
2023-05-15T06:56:58.691Z,16.35
2023-05-15T07:02:03.035Z,16.32
2023-05-15T07:07:06.281Z,16.30
2023-05-15T07:12:09.093Z,16.31
2023-05-15T07:17:12.898Z,16.42
2023-05-15T07:22:15.654Z,16.61
2023-05-15T07:27:18.377Z,16.82
2023-05-15T07:32:21.289Z,16.99
2023-05-15T07:37:24.802Z,17.11
2023-05-15T07:42:27.313Z,17.18
2023-05-15T07:47:29.860Z,17.30
2023-05-15T07:52:32.952Z,17.36
2023-05-15T07:57:35.615Z,17.31
2023-05-15T08:02:38.518Z,17.27
2023-05-15T08:07:41.127Z,17.27
2023-05-15T08:12:46.496Z,17.30
2023-05-15T08:17:49.110Z,17.27
2023-05-15T08:22:51.680Z,17.21
2023-05-15T08:27:54.274Z,17.09
2023-05-15T08:32:56.849Z,16.91
2023-05-15T08:37:59.519Z,16.74
2023-05-15T08:43:15.857Z,16.60
2023-05-15T08:48:21.952Z,16.45
2023-05-15T08:53:25.429Z,16.35
2023-05-15T08:58:28.633Z,16.34
2023-05-15T09:03:31.230Z,16.38
2023-05-15T09:08:34.448Z,16.46
2023-05-15T09:13:37.000Z,16.57
2023-05-15T09:18:40.312Z,16.74
2023-05-15T09:23:43.731Z,16.97
2023-05-15T09:28:46.392Z,17.26
2023-05-15T09:34:00.404Z,17.61
2023-05-15T09:39:03.302Z,18.18
2023-05-15T09:44:18.693Z,18.74
2023-05-15T09:49:23.295Z,19.13
2023-05-15T09:54:35.279Z,19.44
2023-05-15T09:59:45.741Z,19.71
2023-05-15T10:04:54.532Z,19.93
2023-05-15T10:09:57.707Z,19.98
2023-05-15T10:15:01.988Z,19.73
2023-05-15T10:20:06.977Z,19.45
2023-05-15T10:25:18.541Z,18.98
2023-05-15T10:30:25.989Z,18.56
2023-05-15T10:35:29.269Z,18.20
2023-05-15T10:40:33.022Z,17.79
2023-05-15T10:45:35.953Z,17.48
2023-05-15T10:50:41.667Z,17.41
2023-05-15T10:55:46.045Z,17.40
2023-05-15T11:00:48.581Z,17.18
2023-05-15T11:06:12.537Z,16.79
2023-05-15T11:11:47.115Z,16.19
2023-05-15T11:16:52.803Z,15.77
2023-05-15T11:21:58.138Z,15.51
2023-05-15T11:27:02.413Z,15.37
2023-05-15T11:32:41.255Z,15.32
2023-05-15T11:37:46.664Z,15.36
2023-05-15T11:43:06.616Z,15.42
2023-05-15T11:48:13.538Z,15.51
2023-05-15T11:53:16.910Z,15.55
2023-05-15T11:58:21.472Z,15.48
2023-05-15T12:03:25.560Z,15.31
2023-05-15T12:08:37.407Z,15.12
2023-05-15T12:13:40.228Z,14.90
2023-05-15T12:18:42.860Z,14.71
2023-05-15T12:28:58.808Z,14.52
2023-05-15T12:34:01.957Z,14.47
2023-05-15T12:39:07.889Z,14.50
2023-05-15T12:44:20.861Z,14.48
2023-05-15T12:49:23.642Z,14.36
2023-05-15T12:54:26.249Z,14.17
2023-05-15T12:59:29.900Z,14.09
2023-05-15T13:04:33.499Z,14.12
2023-05-15T13:09:36.150Z,14.04
2023-05-15T13:14:38.655Z,13.92
2023-05-15T13:19:41.143Z,13.83
2023-05-15T13:24:46.076Z,13.74
2023-05-15T13:29:48.628Z,13.70
2023-05-15T13:34:54.556Z,13.63
2023-05-15T13:39:57.171Z,13.55
2023-05-15T13:44:59.757Z,13.52
2023-05-15T13:50:03.320Z,13.44
2023-05-15T13:55:07.358Z,13.31
2023-05-15T14:00:13.065Z,13.19
2023-05-15T14:05:16.854Z,13.13
2023-05-15T14:10:19.743Z,13.10
2023-05-15T14:15:22.333Z,13.09
2023-05-15T14:20:25.148Z,13.13
2023-05-15T14:25:27.946Z,13.15
2023-05-15T14:30:30.629Z,13.15
2023-05-15T14:35:33.262Z,13.12
2023-05-15T14:40:35.826Z,13.05
2023-05-15T14:45:38.461Z,12.95
2023-05-15T14:50:41.648Z,12.90
2023-05-15T14:55:44.182Z,12.90
2023-05-15T15:00:48.246Z,12.90
2023-05-15T15:05:53.961Z,12.87
2023-05-15T15:10:57.438Z,12.85
2023-05-15T15:16:00.005Z,12.83
2023-05-15T15:21:03.600Z,12.85
2023-05-15T15:26:06.092Z,12.83
2023-05-15T15:31:10.008Z,12.83
2023-05-15T15:36:12.630Z,12.85
2023-05-15T15:41:15.225Z,12.86
2023-05-15T15:46:17.959Z,12.86
2023-05-15T15:51:20.893Z,12.86
2023-05-15T15:56:23.473Z,12.85
2023-05-15T16:01:26.031Z,12.85
2023-05-15T16:06:28.684Z,12.86
2023-05-15T16:11:31.853Z,12.87
2023-05-15T16:16:34.376Z,12.88
2023-05-15T16:21:37.066Z,12.87
2023-05-15T16:26:39.913Z,12.86
2023-05-15T16:31:42.824Z,12.85
2023-05-15T16:36:45.446Z,12.85
2023-05-15T16:41:47.963Z,12.86
2023-05-15T16:46:50.586Z,12.84
2023-05-15T16:51:53.468Z,12.84
2023-05-15T16:56:56.203Z,12.86
2023-05-15T17:01:59.347Z,12.88
2023-05-15T17:07:01.928Z,12.94
2023-05-15T17:12:04.935Z,12.98
2023-05-15T17:17:07.456Z,12.97
2023-05-15T17:22:09.970Z,12.99
2023-05-15T17:27:12.485Z,13.00
2023-05-15T17:32:16.672Z,13.00
2023-05-15T17:37:19.598Z,12.99
2023-05-15T17:42:22.153Z,12.97
2023-05-15T17:47:24.896Z,12.98
2023-05-15T17:52:27.727Z,12.98
2023-05-15T17:57:30.282Z,12.98
2023-05-15T18:02:32.885Z,12.97
2023-05-15T18:07:35.576Z,12.99
2023-05-15T18:12:38.100Z,13.00
2023-05-15T18:17:40.752Z,13.01
2023-05-15T18:22:44.648Z,13.02
2023-05-15T18:27:47.191Z,13.03
2023-05-15T18:32:50.031Z,13.07
2023-05-15T18:37:52.610Z,13.11
2023-05-15T18:42:55.772Z,13.14
2023-05-15T18:47:58.487Z,13.19
2023-05-15T18:53:01.362Z,13.21
2023-05-15T18:58:03.955Z,13.24
2023-05-15T19:03:08.746Z,13.28
2023-05-15T19:08:11.422Z,13.30
2023-05-15T19:13:13.998Z,13.31
2023-05-15T19:18:16.591Z,13.32
2023-05-15T19:23:20.801Z,13.34
2023-05-15T19:28:23.352Z,13.35
2023-05-15T19:33:25.920Z,13.36
2023-05-15T19:38:28.488Z,13.36
2023-05-15T19:43:35.705Z,13.35
2023-05-15T19:48:38.461Z,13.33
2023-05-15T19:53:41.498Z,13.31
2023-05-15T19:58:44.263Z,13.28
2023-05-15T20:03:49.979Z,13.25
2023-05-15T20:08:52.773Z,13.22
2023-05-15T20:13:57.961Z,13.20
2023-05-15T20:19:00.553Z,13.22
2023-05-15T20:24:04.409Z,13.23
2023-05-15T20:29:06.987Z,13.23
2023-05-15T20:34:09.754Z,13.24
2023-05-15T20:39:12.261Z,13.21
2023-05-15T20:44:15.059Z,13.15
2023-05-15T20:49:17.698Z,13.11
2023-05-15T20:54:20.277Z,13.07
2023-05-15T20:59:22.967Z,13.04
2023-05-15T21:04:25.789Z,13.02
2023-05-15T21:09:28.310Z,12.98
2023-05-15T21:14:31.195Z,12.94
2023-05-15T21:19:33.778Z,12.90
2023-05-15T21:24:36.479Z,12.86
2023-05-15T21:29:38.982Z,12.81
2023-05-15T21:34:41.692Z,12.76
2023-05-15T21:39:45.467Z,12.75
2023-05-15T21:44:47.964Z,12.75
2023-05-15T21:49:50.626Z,12.74
2023-05-15T21:54:53.125Z,12.68
2023-05-15T21:59:55.654Z,12.63
2023-05-15T22:04:58.162Z,12.56
2023-05-15T22:10:01.433Z,12.48
2023-05-15T22:15:04.336Z,12.42
2023-05-15T22:20:11.255Z,12.38
2023-05-15T22:25:13.826Z,12.36
2023-05-15T22:30:16.478Z,12.38
2023-05-15T22:35:19.133Z,12.40
2023-05-15T22:40:21.609Z,12.43
2023-05-15T22:45:24.274Z,12.46
2023-05-15T22:50:27.500Z,12.48
2023-05-15T22:55:30.304Z,12.49
2023-05-15T23:00:33.471Z,12.48
2023-05-15T23:05:36.081Z,12.48
2023-05-15T23:10:38.708Z,12.48
2023-05-15T23:15:41.316Z,12.46
2023-05-15T23:20:43.885Z,12.42
2023-05-15T23:25:46.377Z,12.41
2023-05-15T23:30:51.885Z,12.45
2023-05-15T23:35:54.470Z,12.49
2023-05-15T23:40:57.008Z,12.57
2023-05-15T23:45:59.533Z,12.64
2023-05-15T23:51:02.385Z,12.69
2023-05-15T23:56:06.073Z,12.73
